Etusivu
METAR-TAF:

METAR-TAF

Lentoasemat :

Coral Harbourin lentoasema

Coral Harbour, Nunavut, Kanada

Leveyspiiri: 64-12N, Pituuspiiri: 083-22W, korkeus merenpinnasta: 64 m

Tämänhetkinen sää

Tämä raportti tehtiin 1 tunti ja 10 minuuttia sitten, kello 09.00 UTC
Tuuli 13 kn pohjoisen/luoteesta
Lämpötila -35°C
Kosteus 74%
Ilmanpaine 1027 hPa
Näkyvyys: 24.1 km
selkeää
jääkiteitä

METAR: CYZS 250900Z 34013KT 15SM IC SKC M35/M38 A3033 RMK SLP286

Aika: 05:10 (10:10 UTC)

Sääennuste

Tämä raportti tehtiin 3 tuntia ja 31 minuuttia sitten, kello 06.39 UTC
Ennuste voimassa 25. päivästä klo 07 UTC - 25. päivään klo 19 UTC
Tuuli 12 kn pohjoisesta
Näkyvyys: 10 km
selkeää

TAF: CYZS 250639Z 2507/2519 36012KT P6SM SKC RMK NXT FCST BY 251300Z

Säähavainnot ja -ennusteet yli 4000 lentoasemalta (METAR- ja TAF-raportit).

Käytössä olevat sääasemat on merkitty karttaan keltaisilla ja punaisilla pisteillä.

Aseta hiiri pisteen päälle nähdäksesi sääaseman nimen.

Klikkaa sitten nähdäksesi säähavainnot ja -ennusteet.

Kartan vaihtaminen: klikkaa mustalla rastilla varustettuja vihreitä pisteitä, niin voit zoomata sisään; viivalla varustettua vihreää pistettä, niin voit zoomata ulos tai vihreitä nuolia, niin pääset viereisille kartoille.


METAR-TAF: